sensor_id;sensor_type;location;lat;lon;timestamp;pressure;altitude;pressure_sealevel;temperature;humidity
4410;BME280;2218;51.408;7.208;2024-03-23T00:55:59;99116.78;;;19.27;46.25
4410;BME280;2218;51.408;7.208;2024-03-23T00:58:26;99124.81;;;19.26;46.29
4410;BME280;2218;51.408;7.208;2024-03-23T01:00:52;99111.66;;;19.26;46.48
4410;BME280;2218;51.408;7.208;2024-03-23T01:03:19;99109.00;;;19.26;46.42
4410;BME280;2218;51.408;7.208;2024-03-23T01:05:45;99111.66;;;19.26;46.48
4410;BME280;2218;51.408;7.208;2024-03-23T01:08:12;99116.09;;;19.25;46.45
4410;BME280;2218;51.408;7.208;2024-03-23T01:10:39;99107.34;;;19.25;46.42
4410;BME280;2218;51.408;7.208;2024-03-23T01:13:06;99104.72;;;19.25;46.23
4410;BME280;2218;51.408;7.208;2024-03-23T01:15:32;99104.81;;;19.23;46.28
4410;BME280;2218;51.408;7.208;2024-03-23T01:17:59;99106.47;;;19.24;46.24
4410;BME280;2218;51.408;7.208;2024-03-23T01:20:25;99106.47;;;19.24;46.07
4410;BME280;2218;51.408;7.208;2024-03-23T01:22:53;99099.53;;;19.23;46.26
4410;BME280;2218;51.408;7.208;2024-03-23T01:25:19;99092.59;;;19.22;46.37
4410;BME280;2218;51.408;7.208;2024-03-23T01:27:47;99097.88;;;19.22;46.25
4410;BME280;2218;51.408;7.208;2024-03-23T01:30:13;99089.97;;;19.22;46.32
4410;BME280;2218;51.408;7.208;2024-03-23T01:32:40;99087.34;;;19.22;45.96
4410;BME280;2218;51.408;7.208;2024-03-23T01:35:08;99090.94;;;19.21;46.02
4410;BME280;2218;51.408;7.208;2024-03-23T01:37:35;99067.22;;;19.21;45.98
4410;BME280;2218;51.408;7.208;2024-03-23T01:40:01;99075.25;;;19.20;46.24
4410;BME280;2218;51.408;7.208;2024-03-23T01:42:29;99066.50;;;19.19;46.25
4410;BME280;2218;51.408;7.208;2024-03-23T01:44:57;99063.03;;;19.19;46.04
4410;BME280;2218;51.408;7.208;2024-03-23T01:47:24;99081.47;;;19.19;46.04
4410;BME280;2218;51.408;7.208;2024-03-23T01:49:50;99081.47;;;19.19;46.12
4410;BME280;2218;51.408;7.208;2024-03-23T01:52:17;99083.25;;;19.18;45.92
4410;BME280;2218;51.408;7.208;2024-03-23T01:54:44;99080.63;;;19.18;45.59
4410;BME280;2218;51.408;7.208;2024-03-23T01:57:11;99073.69;;;19.17;45.97
4410;BME280;2218;51.408;7.208;2024-03-23T01:59:38;99078.97;;;19.17;45.98
4410;BME280;2218;51.408;7.208;2024-03-23T02:02:08;99083.38;;;19.17;46.01
4410;BME280;2218;51.408;7.208;2024-03-23T02:04:34;99071.19;;;19.16;45.83
4410;BME280;2218;51.408;7.208;2024-03-23T02:07:01;99065.91;;;19.16;45.94
4410;BME280;2218;51.408;7.208;2024-03-23T02:09:27;99059.81;;;19.15;45.82
4410;BME280;2218;51.408;7.208;2024-03-23T02:11:54;99075.63;;;19.15;46.00
4410;BME280;2218;51.408;7.208;2024-03-23T02:14:20;99073.09;;;19.14;46.06
4410;BME280;2218;51.408;7.208;2024-03-23T02:16:48;99076.56;;;19.14;45.61
4410;BME280;2218;51.408;7.208;2024-03-23T02:19:15;99063.38;;;19.14;45.74
4410;BME280;2218;51.408;7.208;2024-03-23T02:21:42;99042.31;;;19.14;45.80
4410;BME280;2218;51.408;7.208;2024-03-23T02:24:09;99038.97;;;19.12;45.88
4410;BME280;2218;51.408;7.208;2024-03-23T02:26:37;99034.69;;;19.11;45.60
4410;BME280;2218;51.408;7.208;2024-03-23T02:29:02;99038.97;;;19.12;45.71
4410;BME280;2218;51.408;7.208;2024-03-23T02:31:29;99040.66;;;19.13;45.60
4410;BME280;2218;51.408;7.208;2024-03-23T02:33:55;99039.94;;;19.11;45.25
4410;BME280;2218;51.408;7.208;2024-03-23T02:36:22;99040.78;;;19.11;45.15
4410;BME280;2218;51.408;7.208;2024-03-23T02:38:48;99046.88;;;19.12;45.69
4410;BME280;2218;51.408;7.208;2024-03-23T02:41:16;99050.47;;;19.11;45.46
4410;BME280;2218;51.408;7.208;2024-03-23T02:43:49;99036.47;;;19.10;45.71
4410;BME280;2218;51.408;7.208;2024-03-23T02:46:16;99042.56;;;19.11;45.59
4410;BME280;2218;51.408;7.208;2024-03-23T02:48:43;99040.91;;;19.10;45.44
4410;BME280;2218;51.408;7.208;2024-03-23T02:51:10;99035.63;;;19.10;45.47
4410;BME280;2218;51.408;7.208;2024-03-23T02:53:36;99031.22;;;19.10;45.28
4410;BME280;2218;51.408;7.208;2024-03-23T02:56:03;99030.59;;;19.07;45.54
4410;BME280;2218;51.408;7.208;2024-03-23T02:58:31;99027.97;;;19.07;45.51
4410;BME280;2218;51.408;7.208;2024-03-23T03:00:58;99043.78;;;19.07;45.47
4410;BME280;2218;51.408;7.208;2024-03-23T03:03:24;99048.06;;;19.08;45.42
4410;BME280;2218;51.408;7.208;2024-03-23T03:05:55;99037.66;;;19.06;45.03
4410;BME280;2218;51.408;7.208;2024-03-23T03:08:21;99048.19;;;19.06;45.43
4410;BME280;2218;51.408;7.208;2024-03-23T03:10:48;99050.00;;;19.06;45.45
4410;BME280;2218;51.408;7.208;2024-03-23T03:13:15;99050.00;;;19.06;45.29
4410;BME280;2218;51.408;7.208;2024-03-23T03:15:43;99044.84;;;19.04;45.22
4410;BME280;2218;51.408;7.208;2024-03-23T03:18:10;99050.00;;;19.06;44.99
4410;BME280;2218;51.408;7.208;2024-03-23T03:20:38;99041.38;;;19.04;45.12
4410;BME280;2218;51.408;7.208;2024-03-23T03:23:06;99036.94;;;19.04;45.39
4410;BME280;2218;51.408;7.208;2024-03-23T03:25:32;99035.25;;;19.03;44.99
4410;BME280;2218;51.408;7.208;2024-03-23T03:27:59;99037.91;;;19.03;45.60
4410;BME280;2218;51.408;7.208;2024-03-23T03:30:26;99034.44;;;19.03;44.91
4410;BME280;2218;51.408;7.208;2024-03-23T03:32:54;99039.69;;;19.03;45.15
4410;BME280;2218;51.408;7.208;2024-03-23T03:35:20;99033.59;;;19.02;44.94
4410;BME280;2218;51.408;7.208;2024-03-23T03:37:48;99022.22;;;19.02;44.99
4410;BME280;2218;51.408;7.208;2024-03-23T03:40:14;99010.03;;;19.01;45.07
4410;BME280;2218;51.408;7.208;2024-03-23T03:42:42;99014.47;;;19.00;44.83
4410;BME280;2218;51.408;7.208;2024-03-23T03:45:08;99023.19;;;19.01;44.83
4410;BME280;2218;51.408;7.208;2024-03-23T03:47:35;99036.38;;;19.01;45.06
4410;BME280;2218;51.408;7.208;2024-03-23T03:50:02;99033.72;;;19.01;44.79
4410;BME280;2218;51.408;7.208;2024-03-23T03:52:29;99038.16;;;19.00;44.98
4410;BME280;2218;51.408;7.208;2024-03-23T03:55:02;99025.81;;;19.01;45.06
4410;BME280;2218;51.408;7.208;2024-03-23T03:57:29;99022.47;;;18.99;44.68
4410;BME280;2218;51.408;7.208;2024-03-23T03:59:55;99022.47;;;18.99;44.86
4410;BME280;2218;51.408;7.208;2024-03-23T04:02:22;99029.44;;;19.00;44.77
4410;BME280;2218;51.408;7.208;2024-03-23T04:04:48;99026.06;;;18.98;44.63
4410;BME280;2218;51.408;7.208;2024-03-23T04:07:16;99015.53;;;18.98;44.54
4410;BME280;2218;51.408;7.208;2024-03-23T04:09:44;99018.16;;;18.98;44.84
4410;BME280;2218;51.408;7.208;2024-03-23T04:12:11;99015.53;;;18.98;44.64
4410;BME280;2218;51.408;7.208;2024-03-23T04:14:37;99024.38;;;18.97;44.69
4410;BME280;2218;51.408;7.208;2024-03-23T04:17:04;99020.91;;;18.96;44.46
4410;BME280;2218;51.408;7.208;2024-03-23T04:19:30;99019.97;;;18.97;44.56
4410;BME280;2218;51.408;7.208;2024-03-23T04:21:57;99023.56;;;18.96;44.65
4410;BME280;2218;51.408;7.208;2024-03-23T04:24:24;99006.94;;;18.96;44.48
4410;BME280;2218;51.408;7.208;2024-03-23T04:26:52;99020.09;;;18.96;44.81
4410;BME280;2218;51.408;7.208;2024-03-23T04:29:18;99012.19;;;18.96;44.59
4410;BME280;2218;51.408;7.208;2024-03-23T04:31:45;99015.78;;;18.95;44.48
4410;BME280;2218;51.408;7.208;2024-03-23T04:34:11;99010.53;;;18.95;44.48
4410;BME280;2218;51.408;7.208;2024-03-23T04:36:38;99010.53;;;18.95;44.70
4410;BME280;2218;51.408;7.208;2024-03-23T04:39:06;99007.03;;;18.94;44.42
4410;BME280;2218;51.408;7.208;2024-03-23T04:41:35;99014.94;;;18.94;44.52
4410;BME280;2218;51.408;7.208;2024-03-23T04:44:02;99012.41;;;18.93;44.53
4410;BME280;2218;51.408;7.208;2024-03-23T04:46:29;99004.53;;;18.93;44.38
4410;BME280;2218;51.408;7.208;2024-03-23T04:48:56;99007.16;;;18.93;44.40
4410;BME280;2218;51.408;7.208;2024-03-23T04:51:24;99013.38;;;18.92;44.32
4410;BME280;2218;51.408;7.208;2024-03-23T04:53:51;99007.16;;;18.93;44.52
4410;BME280;2218;51.408;7.208;2024-03-23T04:56:18;99008.13;;;18.92;44.20
4410;BME280;2218;51.408;7.208;2024-03-23T04:58:47;99010.75;;;18.92;44.35
4410;BME280;2218;51.408;7.208;2024-03-23T05:01:13;99003.81;;;18.91;44.28
4410;BME280;2218;51.408;7.208;2024-03-23T05:03:40;99006.44;;;18.91;44.33
4410;BME280;2218;51.408;7.208;2024-03-23T05:06:06;99003.81;;;18.91;44.08
4410;BME280;2218;51.408;7.208;2024-03-23T05:08:33;99008.25;;;18.90;44.21
4410;BME280;2218;51.408;7.208;2024-03-23T05:10:59;99007.41;;;18.90;44.29
4410;BME280;2218;51.408;7.208;2024-03-23T05:13:26;99009.19;;;18.89;44.05
4410;BME280;2218;51.408;7.208;2024-03-23T05:15:54;99007.41;;;18.90;44.35
4410;BME280;2218;51.408;7.208;2024-03-23T05:18:21;99010.16;;;18.88;44.36
4410;BME280;2218;51.408;7.208;2024-03-23T05:20:47;99015.41;;;18.88;44.30
4410;BME280;2218;51.408;7.208;2024-03-23T05:23:15;99011.94;;;18.88;44.34
4410;BME280;2218;51.408;7.208;2024-03-23T05:25:41;99013.63;;;18.89;44.06
4410;BME280;2218;51.408;7.208;2024-03-23T05:28:08;99007.66;;;18.87;43.96
4410;BME280;2218;51.408;7.208;2024-03-23T05:30:34;99014.56;;;18.88;44.18
4410;BME280;2218;51.408;7.208;2024-03-23T05:33:02;99011.25;;;18.85;44.11
4410;BME280;2218;51.408;7.208;2024-03-23T05:35:28;99009.31;;;18.88;44.17
4410;BME280;2218;51.408;7.208;2024-03-23T05:37:55;99010.28;;;18.87;43.92
4410;BME280;2218;51.408;7.208;2024-03-23T05:40:21;99015.66;;;18.85;44.26
4410;BME280;2218;51.408;7.208;2024-03-23T05:42:48;99015.66;;;18.85;44.06
4410;BME280;2218;51.408;7.208;2024-03-23T05:45:14;99019.13;;;18.85;44.03
4410;BME280;2218;51.408;7.208;2024-03-23T05:47:44;99020.94;;;18.85;43.87
4410;BME280;2218;51.408;7.208;2024-03-23T05:50:11;99018.41;;;18.83;43.85
4410;BME280;2218;51.408;7.208;2024-03-23T05:52:38;99014.81;;;18.84;44.09
4410;BME280;2218;51.408;7.208;2024-03-23T05:55:05;99015.78;;;18.83;43.81
4410;BME280;2218;51.408;7.208;2024-03-23T05:57:32;99018.41;;;18.83;43.89
4410;BME280;2218;51.408;7.208;2024-03-23T05:59:58;99023.66;;;18.83;44.04
4410;BME280;2218;51.408;7.208;2024-03-23T06:02:25;99013.13;;;18.83;43.76
4410;BME280;2218;51.408;7.208;2024-03-23T06:04:51;99018.66;;;18.80;43.86
4410;BME280;2218;51.408;7.208;2024-03-23T06:07:19;99016.03;;;18.80;43.77
4410;BME280;2218;51.408;7.208;2024-03-23T06:09:46;99023.94;;;18.80;43.99
4410;BME280;2218;51.408;7.208;2024-03-23T06:12:13;99022.22;;;18.79;43.89
4410;BME280;2218;51.408;7.208;2024-03-23T06:14:39;99026.56;;;18.80;44.13
4410;BME280;2218;51.408;7.208;2024-03-23T06:17:06;99020.56;;;18.78;44.04
4410;BME280;2218;51.408;7.208;2024-03-23T06:19:32;99037.19;;;18.79;43.69
4410;BME280;2218;51.408;7.208;2024-03-23T06:21:59;99030.25;;;18.78;43.97
4410;BME280;2218;51.408;7.208;2024-03-23T06:24:27;99033.84;;;18.77;43.78
4410;BME280;2218;51.408;7.208;2024-03-23T06:26:53;99044.38;;;18.77;43.88
4410;BME280;2218;51.408;7.208;2024-03-23T06:29:19;99038.28;;;18.76;44.06
4410;BME280;2218;51.408;7.208;2024-03-23T06:31:53;99033.00;;;18.76;43.49
4410;BME280;2218;51.408;7.208;2024-03-23T06:34:19;99034.69;;;18.77;43.74
4410;BME280;2218;51.408;7.208;2024-03-23T06:36:47;99031.22;;;18.77;43.71
4410;BME280;2218;51.408;7.208;2024-03-23T06:39:13;99034.69;;;18.77;43.96
4410;BME280;2218;51.408;7.208;2024-03-23T06:41:42;99034.69;;;18.77;43.71
4410;BME280;2218;51.408;7.208;2024-03-23T06:44:08;99033.00;;;18.76;43.94
4410;BME280;2218;51.408;7.208;2024-03-23T06:46:35;99033.00;;;18.76;44.07
4410;BME280;2218;51.408;7.208;2024-03-23T06:49:01;99040.78;;;18.78;43.92
4410;BME280;2218;51.408;7.208;2024-03-23T06:51:28;99040.78;;;18.78;43.38
4410;BME280;2218;51.408;7.208;2024-03-23T06:53:55;99037.31;;;18.77;43.95
4410;BME280;2218;51.408;7.208;2024-03-23T06:56:21;99035.53;;;18.78;43.64
4410;BME280;2218;51.408;7.208;2024-03-23T06:58:49;99038.97;;;18.78;43.93
4410;BME280;2218;51.408;7.208;2024-03-23T07:01:16;99045.00;;;18.80;43.87
4410;BME280;2218;51.408;7.208;2024-03-23T07:03:42;99035.38;;;18.79;43.83
4410;BME280;2218;51.408;7.208;2024-03-23T07:06:10;99047.63;;;18.80;43.95
4410;BME280;2218;51.408;7.208;2024-03-23T07:08:36;99050.25;;;18.80;43.55
4410;BME280;2218;51.408;7.208;2024-03-23T07:11:03;99052.75;;;18.82;43.92
4410;BME280;2218;51.408;7.208;2024-03-23T07:13:30;99051.78;;;18.83;43.98
4410;BME280;2218;51.408;7.208;2024-03-23T07:15:58;99050.81;;;18.84;43.94
4410;BME280;2218;51.408;7.208;2024-03-23T07:18:25;99047.25;;;18.85;43.50
4410;BME280;2218;51.408;7.208;2024-03-23T07:20:53;99045.34;;;18.87;43.65
4410;BME280;2218;51.408;7.208;2024-03-23T07:23:19;99047.00;;;18.88;43.81
4410;BME280;2218;51.408;7.208;2024-03-23T07:25:56;99044.28;;;18.90;43.89
4410;BME280;2218;51.408;7.208;2024-03-23T07:28:22;99047.59;;;18.92;43.72
4410;BME280;2218;51.408;7.208;2024-03-23T07:31:04;99044.00;;;18.93;43.43
4410;BME280;2218;51.408;7.208;2024-03-23T07:33:30;99041.25;;;18.94;43.41
4410;BME280;2218;51.408;7.208;2024-03-23T07:35:58;99047.25;;;18.96;43.72
4410;BME280;2218;51.408;7.208;2024-03-23T07:38:26;99047.13;;;18.98;43.66
4410;BME280;2218;51.408;7.208;2024-03-23T07:41:03;99054.06;;;18.99;43.31
4410;BME280;2218;51.408;7.208;2024-03-23T07:43:30;99046.06;;;19.00;43.69
4410;BME280;2218;51.408;7.208;2024-03-23T07:45:57;99046.91;;;19.01;43.79
4410;BME280;2218;51.408;7.208;2024-03-23T07:48:24;99044.97;;;19.03;43.68
4410;BME280;2218;51.408;7.208;2024-03-23T07:50:59;99046.63;;;19.04;43.30
4410;BME280;2218;51.408;7.208;2024-03-23T07:53:25;99047.38;;;19.06;43.59
4410;BME280;2218;51.408;7.208;2024-03-23T07:55:55;99055.97;;;19.08;43.34
4410;BME280;2218;51.408;7.208;2024-03-23T07:58:21;99060.28;;;19.09;43.41
4410;BME280;2218;51.408;7.208;2024-03-23T08:00:49;99058.38;;;19.11;43.54
4410;BME280;2218;51.408;7.208;2024-03-23T08:03:15;99065.31;;;19.12;43.41
4410;BME280;2218;51.408;7.208;2024-03-23T08:05:43;99061.72;;;19.13;43.28
4410;BME280;2218;51.408;7.208;2024-03-23T08:08:09;99062.56;;;19.14;43.40
4410;BME280;2218;51.408;7.208;2024-03-23T08:10:36;99059.81;;;19.15;43.33
4410;BME280;2218;51.408;7.208;2024-03-23T08:13:03;99066.75;;;19.16;43.19
4410;BME280;2218;51.408;7.208;2024-03-23T08:15:31;99063.16;;;19.17;43.32
4410;BME280;2218;51.408;7.208;2024-03-23T08:17:59;99062.19;;;19.18;43.40
4410;BME280;2218;51.408;7.208;2024-03-23T08:20:26;99059.56;;;19.18;43.27
4410;BME280;2218;51.408;7.208;2024-03-23T08:22:54;99062.19;;;19.18;43.36
4410;BME280;2218;51.408;7.208;2024-03-23T08:25:21;99055.97;;;19.19;43.26
4410;BME280;2218;51.408;7.208;2024-03-23T08:27:47;99061.22;;;19.19;43.43
4410;BME280;2218;51.408;7.208;2024-03-23T08:30:14;99050.69;;;19.19;43.18
4410;BME280;2218;51.408;7.208;2024-03-23T08:32:40;99049.84;;;19.19;43.34
4410;BME280;2218;51.408;7.208;2024-03-23T08:35:08;99045.41;;;19.19;43.51
4410;BME280;2218;51.408;7.208;2024-03-23T08:37:34;99048.91;;;19.20;43.29
4410;BME280;2218;51.408;7.208;2024-03-23T08:40:03;99041.03;;;19.20;43.19
4410;BME280;2218;51.408;7.208;2024-03-23T08:42:30;99042.69;;;19.21;43.55
4410;BME280;2218;51.408;7.208;2024-03-23T08:44:57;99043.53;;;19.21;43.34
4410;BME280;2218;51.408;7.208;2024-03-23T08:47:23;99045.31;;;19.21;43.32
4410;BME280;2218;51.408;7.208;2024-03-23T08:49:50;99048.78;;;19.21;43.29
4410;BME280;2218;51.408;7.208;2024-03-23T08:52:15;99040.88;;;19.21;43.18
4410;BME280;2218;51.408;7.208;2024-03-23T08:54:42;99047.94;;;19.21;43.25
4410;BME280;2218;51.408;7.208;2024-03-23T08:57:10;99048.78;;;19.21;43.23
4410;BME280;2218;51.408;7.208;2024-03-23T08:59:38;99047.94;;;19.21;43.23
4410;BME280;2218;51.408;7.208;2024-03-23T09:02:05;99041.84;;;19.20;43.23
4410;BME280;2218;51.408;7.208;2024-03-23T09:04:31;99040.16;;;19.19;43.46
4410;BME280;2218;51.408;7.208;2024-03-23T09:06:57;99047.13;;;19.20;43.33
4410;BME280;2218;51.408;7.208;2024-03-23T09:09:26;99049.75;;;19.20;43.33
4410;BME280;2218;51.408;7.208;2024-03-23T09:11:52;99053.31;;;19.19;43.11
4410;BME280;2218;51.408;7.208;2024-03-23T09:14:21;99055.97;;;19.19;43.41
4410;BME280;2218;51.408;7.208;2024-03-23T09:16:50;99060.38;;;19.19;43.08
4410;BME280;2218;51.408;7.208;2024-03-23T09:19:17;99067.47;;;19.18;43.33
4410;BME280;2218;51.408;7.208;2024-03-23T09:21:43;99084.22;;;19.17;43.18
4410;BME280;2218;51.408;7.208;2024-03-23T09:24:10;99072.03;;;19.16;43.27
4410;BME280;2218;51.408;7.208;2024-03-23T09:26:36;99072.84;;;19.17;43.01
4410;BME280;2218;51.408;7.208;2024-03-23T09:29:03;99073.69;;;19.17;43.18
4410;BME280;2218;51.408;7.208;2024-03-23T09:31:31;99073.91;;;19.14;42.94
4410;BME280;2218;51.408;7.208;2024-03-23T09:33:59;99080.06;;;19.15;42.85
4410;BME280;2218;51.408;7.208;2024-03-23T09:36:25;99074.78;;;19.15;42.96
4410;BME280;2218;51.408;7.208;2024-03-23T09:38:52;99071.53;;;19.11;43.03
4410;BME280;2218;51.408;7.208;2024-03-23T09:41:18;99071.41;;;19.13;43.42
4410;BME280;2218;51.408;7.208;2024-03-23T09:43:45;99079.44;;;19.11;42.92
4410;BME280;2218;51.408;7.208;2024-03-23T09:46:14;99081.13;;;19.12;42.84
4410;BME280;2218;51.408;7.208;2024-03-23T09:48:43;99075.16;;;19.10;42.71
4410;BME280;2218;51.408;7.208;2024-03-23T09:51:12;99067.25;;;19.10;42.99
4410;BME280;2218;51.408;7.208;2024-03-23T09:53:39;99067.25;;;19.10;42.72
4410;BME280;2218;51.408;7.208;2024-03-23T09:56:05;99054.19;;;19.08;43.05
4410;BME280;2218;51.408;7.208;2024-03-23T09:58:32;99059.44;;;19.08;42.84
4410;BME280;2218;51.408;7.208;2024-03-23T10:00:58;99053.34;;;19.08;42.95
4410;BME280;2218;51.408;7.208;2024-03-23T10:03:25;99042.81;;;19.08;42.56
4410;BME280;2218;51.408;7.208;2024-03-23T10:06:02;99046.41;;;19.07;42.79
4410;BME280;2218;51.408;7.208;2024-03-23T10:08:30;99035.88;;;19.07;42.53
4410;BME280;2218;51.408;7.208;2024-03-23T10:10:57;99038.50;;;19.07;42.54
4410;BME280;2218;51.408;7.208;2024-03-23T10:13:25;99042.81;;;19.08;42.64
4410;BME280;2218;51.408;7.208;2024-03-23T10:15:56;99032.41;;;19.06;42.79
4410;BME280;2218;51.408;7.208;2024-03-23T10:18:25;99030.59;;;19.07;42.69
4410;BME280;2218;51.408;7.208;2024-03-23T10:21:09;99026.16;;;19.07;42.51
4410;BME280;2218;51.408;7.208;2024-03-23T10:23:38;99029.63;;;19.08;42.52
4410;BME280;2218;51.408;7.208;2024-03-23T10:26:20;99020.06;;;19.07;42.46
4410;BME280;2218;51.408;7.208;2024-03-23T10:28:52;99032.28;;;19.08;42.69
4410;BME280;2218;51.408;7.208;2024-03-23T10:31:20;99020.06;;;19.07;42.54
4410;BME280;2218;51.408;7.208;2024-03-23T10:33:47;99012.16;;;19.07;42.46
4410;BME280;2218;51.408;7.208;2024-03-23T10:36:15;99020.06;;;19.07;42.45
4410;BME280;2218;51.408;7.208;2024-03-23T10:38:44;99022.56;;;19.08;42.48
4410;BME280;2218;51.408;7.208;2024-03-23T10:41:10;99020.91;;;19.07;42.37
4410;BME280;2218;51.408;7.208;2024-03-23T10:43:39;99012.16;;;19.07;42.34
4410;BME280;2218;51.408;7.208;2024-03-23T10:46:05;99014.81;;;19.07;42.30
4410;BME280;2218;51.408;7.208;2024-03-23T10:48:32;99016.47;;;19.08;42.59
4410;BME280;2218;51.408;7.208;2024-03-23T10:50:59;99016.47;;;19.08;42.40
4410;BME280;2218;51.408;7.208;2024-03-23T10:53:28;99011.19;;;19.08;42.28
4410;BME280;2218;51.408;7.208;2024-03-23T10:55:56;99013.00;;;19.07;42.41
4410;BME280;2218;51.408;7.208;2024-03-23T10:58:27;99005.94;;;19.08;42.21
4410;BME280;2218;51.408;7.208;2024-03-23T11:00:55;99011.19;;;19.08;42.05
4410;BME280;2218;51.408;7.208;2024-03-23T11:03:32;99017.31;;;19.08;42.18
4410;BME280;2218;51.408;7.208;2024-03-23T11:05:59;99078.72;;;19.09;42.03
4410;BME280;2218;51.408;7.208;2024-03-23T11:08:36;99095.47;;;19.08;42.11
4410;BME280;2218;51.408;7.208;2024-03-23T11:11:17;99096.31;;;19.08;41.99
4410;BME280;2218;51.408;7.208;2024-03-23T11:13:47;99088.53;;;19.07;41.88
4410;BME280;2218;51.408;7.208;2024-03-23T11:16:16;99087.72;;;19.06;41.72
4410;BME280;2218;51.408;7.208;2024-03-23T11:18:44;99083.50;;;19.04;41.78
4410;BME280;2218;51.408;7.208;2024-03-23T11:21:10;99071.31;;;19.03;41.81
4410;BME280;2218;51.408;7.208;2024-03-23T11:23:39;99087.09;;;19.03;41.75
4410;BME280;2218;51.408;7.208;2024-03-23T11:26:08;99079.34;;;19.01;41.66
4410;BME280;2218;51.408;7.208;2024-03-23T11:28:35;99075.03;;;19.00;42.05
4410;BME280;2218;51.408;7.208;2024-03-23T11:31:01;99074.19;;;19.00;42.01
4410;BME280;2218;51.408;7.208;2024-03-23T11:33:28;99073.31;;;18.99;41.73
4410;BME280;2218;51.408;7.208;2024-03-23T11:35:54;99069.84;;;18.99;41.60
4410;BME280;2218;51.408;7.208;2024-03-23T11:38:21;99061.25;;;18.97;41.92
4410;BME280;2218;51.408;7.208;2024-03-23T11:40:50;99062.91;;;18.98;41.88
4410;BME280;2218;51.408;7.208;2024-03-23T11:43:18;99048.91;;;18.97;41.91
4410;BME280;2218;51.408;7.208;2024-03-23T11:45:47;99057.66;;;18.98;41.87
4410;BME280;2218;51.408;7.208;2024-03-23T11:48:17;99053.22;;;18.98;41.70
4410;BME280;2218;51.408;7.208;2024-03-23T11:50:45;99041.03;;;18.97;41.66
4410;BME280;2218;51.408;7.208;2024-03-23T11:53:15;99034.94;;;18.97;41.72
4410;BME280;2218;51.408;7.208;2024-03-23T11:55:46;99033.25;;;18.96;41.84
4410;BME280;2218;51.408;7.208;2024-03-23T11:58:17;99023.56;;;18.96;41.86
4410;BME280;2218;51.408;7.208;2024-03-23T12:00:50;99032.28;;;18.97;41.74
4410;BME280;2218;51.408;7.208;2024-03-23T12:03:18;99022.72;;;18.96;41.81
4410;BME280;2218;51.408;7.208;2024-03-23T12:05:49;99025.34;;;18.96;41.75
4410;BME280;2218;51.408;7.208;2024-03-23T12:08:21;99019.13;;;18.97;41.99
4410;BME280;2218;51.408;7.208;2024-03-23T12:10:50;99010.25;;;18.98;41.74
4410;BME280;2218;51.408;7.208;2024-03-23T12:13:19;99020.78;;;18.98;41.51
4410;BME280;2218;51.408;7.208;2024-03-23T12:15:47;99009.44;;;18.97;41.91
4410;BME280;2218;51.408;7.208;2024-03-23T12:18:14;99008.59;;;18.97;41.90
4410;BME280;2218;51.408;7.208;2024-03-23T12:20:40;99008.59;;;18.97;41.99
4410;BME280;2218;51.408;7.208;2024-03-23T12:23:09;99006.94;;;18.96;41.81
4410;BME280;2218;51.408;7.208;2024-03-23T12:25:38;99013.84;;;18.97;41.80
4410;BME280;2218;51.408;7.208;2024-03-23T12:28:07;99010.38;;;18.96;41.58
4410;BME280;2218;51.408;7.208;2024-03-23T12:30:39;99013.03;;;18.96;41.77
4410;BME280;2218;51.408;7.208;2024-03-23T12:33:06;99019.13;;;18.97;41.42
4410;BME280;2218;51.408;7.208;2024-03-23T12:35:32;99025.22;;;18.97;41.46
4410;BME280;2218;51.408;7.208;2024-03-23T12:37:59;99025.22;;;18.97;41.54
4410;BME280;2218;51.408;7.208;2024-03-23T12:40:26;99029.66;;;18.97;41.53
4410;BME280;2218;51.408;7.208;2024-03-23T12:42:53;99022.72;;;18.96;41.28
4410;BME280;2218;51.408;7.208;2024-03-23T12:45:19;99034.22;;;18.95;41.23
4410;BME280;2218;51.408;7.208;2024-03-23T12:47:48;99035.06;;;18.95;41.40
4410;BME280;2218;51.408;7.208;2024-03-23T12:50:14;99035.16;;;18.94;41.57
4410;BME280;2218;51.408;7.208;2024-03-23T12:52:41;99035.06;;;18.95;41.28
4410;BME280;2218;51.408;7.208;2024-03-23T12:55:07;99032.41;;;18.95;41.16
4410;BME280;2218;51.408;7.208;2024-03-23T12:57:34;99029.88;;;18.94;41.45
4410;BME280;2218;51.408;7.208;2024-03-23T13:00:00;99023.69;;;18.95;41.12
4410;BME280;2218;51.408;7.208;2024-03-23T13:02:28;99027.16;;;18.95;41.33
4410;BME280;2218;51.408;7.208;2024-03-23T13:04:55;99026.31;;;18.95;41.10
4410;BME280;2218;51.408;7.208;2024-03-23T13:07:23;99021.88;;;18.95;41.02
4410;BME280;2218;51.408;7.208;2024-03-23T13:09:53;99021.88;;;18.95;41.38
4410;BME280;2218;51.408;7.208;2024-03-23T13:12:22;99022.72;;;18.96;40.95
4410;BME280;2218;51.408;7.208;2024-03-23T13:14:48;99028.81;;;18.96;40.99
4410;BME280;2218;51.408;7.208;2024-03-23T13:17:15;99033.25;;;18.96;40.66
4410;BME280;2218;51.408;7.208;2024-03-23T13:19:41;99028.00;;;18.96;40.86
4410;BME280;2218;51.408;7.208;2024-03-23T13:22:10;99036.84;;;18.95;40.90
4410;BME280;2218;51.408;7.208;2024-03-23T13:24:37;99053.47;;;18.95;40.80
4410;BME280;2218;51.408;7.208;2024-03-23T13:27:05;99047.38;;;18.95;40.89
4410;BME280;2218;51.408;7.208;2024-03-23T13:29:34;99035.16;;;18.94;40.80
4410;BME280;2218;51.408;7.208;2024-03-23T13:32:01;99034.31;;;18.93;41.05
4410;BME280;2218;51.408;7.208;2024-03-23T13:34:27;99036.13;;;18.93;40.82
4410;BME280;2218;51.408;7.208;2024-03-23T13:36:55;99033.47;;;18.93;41.05
4410;BME280;2218;51.408;7.208;2024-03-23T13:39:25;99025.59;;;18.93;40.93
4410;BME280;2218;51.408;7.208;2024-03-23T13:41:53;99033.47;;;18.93;40.66
4410;BME280;2218;51.408;7.208;2024-03-23T13:44:20;99043.88;;;18.94;40.90
4410;BME280;2218;51.408;7.208;2024-03-23T13:46:47;99038.75;;;18.93;40.76
4410;BME280;2218;51.408;7.208;2024-03-23T13:49:25;99022.13;;;18.92;40.90
4410;BME280;2218;51.408;7.208;2024-03-23T13:51:53;99028.22;;;18.93;41.12
4410;BME280;2218;51.408;7.208;2024-03-23T13:54:20;99025.72;;;18.91;40.93
4410;BME280;2218;51.408;7.208;2024-03-23T13:56:50;99031.81;;;18.92;40.81
4410;BME280;2218;51.408;7.208;2024-03-23T13:59:16;99023.09;;;18.91;40.86
4410;BME280;2218;51.408;7.208;2024-03-23T14:01:43;99026.56;;;18.92;40.90
4410;BME280;2218;51.408;7.208;2024-03-23T14:04:11;99010.75;;;18.92;40.93
4410;BME280;2218;51.408;7.208;2024-03-23T14:06:38;99009.91;;;18.91;40.88
4410;BME280;2218;51.408;7.208;2024-03-23T14:09:05;99004.66;;;18.91;40.84
4410;BME280;2218;51.408;7.208;2024-03-23T14:11:34;99013.38;;;18.92;40.64
4410;BME280;2218;51.408;7.208;2024-03-23T14:14:01;99001.19;;;18.91;40.73
4410;BME280;2218;51.408;7.208;2024-03-23T14:16:29;99005.47;;;18.92;40.90
4410;BME280;2218;51.408;7.208;2024-03-23T14:18:55;99009.09;;;18.91;40.86